sensor_id;sensor_type;location;lat;lon;timestamp;pressure;altitude;pressure_sealevel;temperature;humidity
84673;BME280;74899;42.256;23.284;2024-02-26T00:01:53;88168.41;;;1.89;85.03
84673;BME280;74899;42.256;23.284;2024-02-26T00:04:19;88166.28;;;1.97;85.68
84673;BME280;74899;42.256;23.284;2024-02-26T00:06:48;88167.94;;;1.92;84.44
84673;BME280;74899;42.256;23.284;2024-02-26T00:09:16;88165.41;;;1.92;85.11
84673;BME280;74899;42.256;23.284;2024-02-26T00:11:42;88146.75;;;1.74;86.03
84673;BME280;74899;42.256;23.284;2024-02-26T00:14:08;88157.25;;;1.78;85.63
84673;BME280;74899;42.256;23.284;2024-02-26T00:16:34;88143.78;;;1.77;86.10
84673;BME280;74899;42.256;23.284;2024-02-26T00:19:01;88150.19;;;1.80;85.44
84673;BME280;74899;42.256;23.284;2024-02-26T00:21:28;88153.13;;;2.00;84.89
84673;BME280;74899;42.256;23.284;2024-02-26T00:23:53;88148.94;;;2.06;84.28
84673;BME280;74899;42.256;23.284;2024-02-26T00:26:20;88127.22;;;2.15;84.47
84673;BME280;74899;42.256;23.284;2024-02-26T00:28:46;88140.03;;;2.32;83.28
84673;BME280;74899;42.256;23.284;2024-02-26T00:31:12;88139.75;;;2.17;84.17
84673;BME280;74899;42.256;23.284;2024-02-26T00:33:39;88130.97;;;2.24;84.14
84673;BME280;74899;42.256;23.284;2024-02-26T00:36:06;88137.06;;;2.23;83.31
84673;BME280;74899;42.256;23.284;2024-02-26T00:38:32;88135.38;;;1.89;85.55
84673;BME280;74899;42.256;23.284;2024-02-26T00:40:58;88128.50;;;1.89;86.15
84673;BME280;74899;42.256;23.284;2024-02-26T00:43:24;88133.13;;;1.92;84.97
84673;BME280;74899;42.256;23.284;2024-02-26T00:45:50;88128.16;;;1.97;84.86
84673;BME280;74899;42.256;23.284;2024-02-26T00:48:17;88121.66;;;1.78;86.28
84673;BME280;74899;42.256;23.284;2024-02-26T00:50:43;88116.13;;;1.81;85.33
84673;BME280;74899;42.256;23.284;2024-02-26T00:53:11;88112.28;;;1.90;84.86
84673;BME280;74899;42.256;23.284;2024-02-26T00:55:37;88113.59;;;1.81;85.56
84673;BME280;74899;42.256;23.284;2024-02-26T00:58:03;88119.81;;;1.73;86.13
84673;BME280;74899;42.256;23.284;2024-02-26T01:00:28;88111.31;;;1.68;86.84
84673;BME280;74899;42.256;23.284;2024-02-26T01:02:54;88107.63;;;1.75;86.05
84673;BME280;74899;42.256;23.284;2024-02-26T01:05:20;88116.44;;;2.08;85.75
84673;BME280;74899;42.256;23.284;2024-02-26T01:07:46;88115.88;;;2.06;85.29
84673;BME280;74899;42.256;23.284;2024-02-26T01:10:12;88110.69;;;2.01;86.04
84673;BME280;74899;42.256;23.284;2024-02-26T01:12:38;88079.31;;;1.95;85.30
84673;BME280;74899;42.256;23.284;2024-02-26T01:15:04;88093.31;;;2.10;84.24
84673;BME280;74899;42.256;23.284;2024-02-26T01:17:30;88098.59;;;2.20;84.88
84673;BME280;74899;42.256;23.284;2024-02-26T01:19:56;88092.91;;;2.30;84.46
84673;BME280;74899;42.256;23.284;2024-02-26T01:22:22;88091.63;;;2.15;83.49
84673;BME280;74899;42.256;23.284;2024-02-26T01:24:49;88094.78;;;2.06;84.79
84673;BME280;74899;42.256;23.284;2024-02-26T01:27:15;88083.75;;;1.88;85.08
84673;BME280;74899;42.256;23.284;2024-02-26T01:29:42;88091.13;;;2.01;84.79
84673;BME280;74899;42.256;23.284;2024-02-26T01:32:08;88086.38;;;2.05;84.88
84673;BME280;74899;42.256;23.284;2024-02-26T01:34:34;88086.50;;;1.98;85.89
84673;BME280;74899;42.256;23.284;2024-02-26T01:37:00;88099.41;;;2.09;85.21
84673;BME280;74899;42.256;23.284;2024-02-26T01:39:26;88080.47;;;1.76;86.80
84673;BME280;74899;42.256;23.284;2024-02-26T01:41:54;88078.13;;;1.86;87.04
84673;BME280;74899;42.256;23.284;2024-02-26T01:44:21;88086.78;;;2.14;86.00
84673;BME280;74899;42.256;23.284;2024-02-26T01:46:48;88073.53;;;2.12;84.96
84673;BME280;74899;42.256;23.284;2024-02-26T01:49:14;88073.97;;;2.09;86.33
84673;BME280;74899;42.256;23.284;2024-02-26T01:51:43;88072.56;;;2.01;86.55
84673;BME280;74899;42.256;23.284;2024-02-26T01:54:10;88069.28;;;1.89;85.87
84673;BME280;74899;42.256;23.284;2024-02-26T01:56:37;88070.94;;;1.95;86.30
84673;BME280;74899;42.256;23.284;2024-02-26T01:59:05;88060.63;;;2.01;86.34
84673;BME280;74899;42.256;23.284;2024-02-26T02:01:32;88072.00;;;1.99;86.44
84673;BME280;74899;42.256;23.284;2024-02-26T02:04:00;88062.13;;;1.86;86.83
84673;BME280;74899;42.256;23.284;2024-02-26T02:06:27;88074.66;;;2.04;85.87
84673;BME280;74899;42.256;23.284;2024-02-26T02:08:56;88058.22;;;1.95;86.13
84673;BME280;74899;42.256;23.284;2024-02-26T02:11:22;88049.41;;;1.86;86.48
84673;BME280;74899;42.256;23.284;2024-02-26T02:13:48;88066.66;;;2.12;85.80
84673;BME280;74899;42.256;23.284;2024-02-26T02:16:15;88067.84;;;2.21;85.32
84673;BME280;74899;42.256;23.284;2024-02-26T02:18:41;88072.22;;;2.38;84.89
84673;BME280;74899;42.256;23.284;2024-02-26T02:32:42;88086.47;;;1.70;86.33
84673;BME280;74899;42.256;23.284;2024-02-26T02:35:08;88084.44;;;1.72;87.75
84673;BME280;74899;42.256;23.284;2024-02-26T02:37:34;88076.28;;;1.81;87.22
84673;BME280;74899;42.256;23.284;2024-02-26T02:40:00;88072.28;;;1.86;87.50
84673;BME280;74899;42.256;23.284;2024-02-26T02:42:26;88075.88;;;2.01;86.34
84673;BME280;74899;42.256;23.284;2024-02-26T02:44:52;88077.16;;;2.16;86.31
84673;BME280;74899;42.256;23.284;2024-02-26T02:47:18;88071.00;;;2.12;86.20
84673;BME280;74899;42.256;23.284;2024-02-26T02:49:44;88084.38;;;2.36;85.10
84673;BME280;74899;42.256;23.284;2024-02-26T02:52:10;88088.09;;;2.45;83.96
84673;BME280;74899;42.256;23.284;2024-02-26T02:54:36;88075.19;;;2.06;85.77
84673;BME280;74899;42.256;23.284;2024-02-26T02:57:03;88076.78;;;1.95;85.86
84673;BME280;74899;42.256;23.284;2024-02-26T02:59:30;88090.53;;;2.23;85.17
84673;BME280;74899;42.256;23.284;2024-02-26T03:01:56;88088.66;;;2.18;85.28
84673;BME280;74899;42.256;23.284;2024-02-26T03:04:22;88083.84;;;2.05;86.40
84673;BME280;74899;42.256;23.284;2024-02-26T03:06:48;88101.56;;;2.29;85.51
84673;BME280;74899;42.256;23.284;2024-02-26T03:09:13;88092.50;;;2.21;85.85
84673;BME280;74899;42.256;23.284;2024-02-26T03:11:40;88089.91;;;2.33;84.50
84673;BME280;74899;42.256;23.284;2024-02-26T03:14:06;88087.41;;;2.21;84.81
84673;BME280;74899;42.256;23.284;2024-02-26T03:16:32;88095.91;;;2.26;84.92
84673;BME280;74899;42.256;23.284;2024-02-26T03:18:58;88094.31;;;2.09;86.00
84673;BME280;74899;42.256;23.284;2024-02-26T03:21:25;88094.22;;;2.03;86.87
84673;BME280;74899;42.256;23.284;2024-02-26T03:23:51;88089.13;;;2.03;86.38
84673;BME280;74899;42.256;23.284;2024-02-26T03:42:14;88083.72;;;1.59;88.23
84673;BME280;74899;42.256;23.284;2024-02-26T03:44:41;88084.91;;;1.57;88.66
84673;BME280;74899;42.256;23.284;2024-02-26T03:47:07;88088.13;;;1.64;88.46
84673;BME280;74899;42.256;23.284;2024-02-26T03:49:32;88081.47;;;1.63;87.92
84673;BME280;74899;42.256;23.284;2024-02-26T03:51:58;88066.78;;;1.77;87.29
84673;BME280;74899;42.256;23.284;2024-02-26T03:54:24;88080.25;;;1.77;87.05
84673;BME280;74899;42.256;23.284;2024-02-26T05:52:18;88087.34;;;1.52;89.08
84673;BME280;74899;42.256;23.284;2024-02-26T05:54:44;88092.22;;;1.53;88.46
84673;BME280;74899;42.256;23.284;2024-02-26T05:57:09;88111.44;;;1.73;88.59
84673;BME280;74899;42.256;23.284;2024-02-26T05:59:35;88108.31;;;1.83;88.24
84673;BME280;74899;42.256;23.284;2024-02-26T06:02:00;88109.19;;;1.76;88.01
84673;BME280;74899;42.256;23.284;2024-02-26T06:04:26;88116.47;;;1.85;87.17
84673;BME280;74899;42.256;23.284;2024-02-26T06:06:51;88111.44;;;2.13;87.23
84673;BME280;74899;42.256;23.284;2024-02-26T06:09:17;88111.13;;;2.38;86.81
84673;BME280;74899;42.256;23.284;2024-02-26T06:11:43;88109.41;;;2.27;85.43
84673;BME280;74899;42.256;23.284;2024-02-26T06:14:08;88122.59;;;2.53;85.89
84673;BME280;74899;42.256;23.284;2024-02-26T06:16:35;88117.69;;;2.80;84.31
84673;BME280;74899;42.256;23.284;2024-02-26T06:19:01;88118.97;;;2.65;84.15
84673;BME280;74899;42.256;23.284;2024-02-26T06:21:27;88120.47;;;2.95;83.87
84673;BME280;74899;42.256;23.284;2024-02-26T06:23:53;88110.31;;;3.12;83.07
84673;BME280;74899;42.256;23.284;2024-02-26T06:26:19;88113.31;;;2.75;83.26
84673;BME280;74899;42.256;23.284;2024-02-26T06:28:45;88118.00;;;2.66;84.64
84673;BME280;74899;42.256;23.284;2024-02-26T06:31:11;88121.88;;;3.03;83.54
84673;BME280;74899;42.256;23.284;2024-02-26T06:33:36;88124.09;;;2.82;83.15
84673;BME280;74899;42.256;23.284;2024-02-26T06:36:02;88122.88;;;2.85;83.25
84673;BME280;74899;42.256;23.284;2024-02-26T06:38:29;88106.50;;;2.81;83.88
84673;BME280;74899;42.256;23.284;2024-02-26T06:40:55;88115.91;;;2.80;83.36
84673;BME280;74899;42.256;23.284;2024-02-26T06:43:22;88117.75;;;2.68;83.55
84673;BME280;74899;42.256;23.284;2024-02-26T06:45:48;88118.25;;;2.82;84.41
84673;BME280;74899;42.256;23.284;2024-02-26T06:48:14;88114.94;;;2.81;83.15
84673;BME280;74899;42.256;23.284;2024-02-26T06:50:40;88107.22;;;2.93;83.20
84673;BME280;74899;42.256;23.284;2024-02-26T06:53:06;88115.03;;;3.20;82.68
84673;BME280;74899;42.256;23.284;2024-02-26T06:55:32;88112.06;;;3.62;81.70
84673;BME280;74899;42.256;23.284;2024-02-26T06:57:59;88123.66;;;3.92;80.87
84673;BME280;74899;42.256;23.284;2024-02-26T07:00:26;88119.13;;;4.16;78.77
84673;BME280;74899;42.256;23.284;2024-02-26T07:02:52;88127.53;;;3.94;79.32
84673;BME280;74899;42.256;23.284;2024-02-26T07:05:17;88122.38;;;3.89;79.14
84673;BME280;74899;42.256;23.284;2024-02-26T07:07:43;88115.03;;;3.93;79.57
84673;BME280;74899;42.256;23.284;2024-02-26T07:10:10;88115.44;;;4.06;78.44
84673;BME280;74899;42.256;23.284;2024-02-26T07:12:38;88123.75;;;4.63;77.95
84673;BME280;74899;42.256;23.284;2024-02-26T07:15:05;88115.72;;;4.54;76.68
84673;BME280;74899;42.256;23.284;2024-02-26T07:17:34;88129.06;;;4.61;76.41
84673;BME280;74899;42.256;23.284;2024-02-26T07:20:00;88130.34;;;5.13;75.71
84673;BME280;74899;42.256;23.284;2024-02-26T07:22:26;88125.66;;;5.05;75.51
84673;BME280;74899;42.256;23.284;2024-02-26T07:24:52;88134.19;;;4.88;74.09
84673;BME280;74899;42.256;23.284;2024-02-26T07:27:21;88135.66;;;5.06;74.25
84673;BME280;74899;42.256;23.284;2024-02-26T07:29:47;88140.19;;;5.31;74.60
84673;BME280;74899;42.256;23.284;2024-02-26T07:32:14;88138.53;;;5.79;72.87
84673;BME280;74899;42.256;23.284;2024-02-26T07:34:42;88130.97;;;5.95;72.39
84673;BME280;74899;42.256;23.284;2024-02-26T07:37:11;88136.66;;;6.07;70.65
84673;BME280;74899;42.256;23.284;2024-02-26T07:39:37;88147.88;;;6.01;71.22
84673;BME280;74899;42.256;23.284;2024-02-26T07:42:03;88153.75;;;6.44;70.55
84673;BME280;74899;42.256;23.284;2024-02-26T07:44:32;88143.19;;;6.35;70.09
84673;BME280;74899;42.256;23.284;2024-02-26T07:46:59;88151.31;;;6.22;70.75
84673;BME280;74899;42.256;23.284;2024-02-26T07:49:26;88149.19;;;6.03;71.57
84673;BME280;74899;42.256;23.284;2024-02-26T07:51:52;88141.25;;;6.05;70.12
84673;BME280;74899;42.256;23.284;2024-02-26T07:54:18;88148.72;;;6.11;71.87
84673;BME280;74899;42.256;23.284;2024-02-26T07:56:44;88150.41;;;6.48;69.92
84673;BME280;74899;42.256;23.284;2024-02-26T07:59:10;88147.28;;;6.36;70.84
84673;BME280;74899;42.256;23.284;2024-02-26T08:01:36;88154.53;;;6.54;70.56
84673;BME280;74899;42.256;23.284;2024-02-26T08:04:04;88148.72;;;6.74;69.51
84673;BME280;74899;42.256;23.284;2024-02-26T08:06:32;88151.03;;;6.71;70.30
84673;BME280;74899;42.256;23.284;2024-02-26T08:08:59;88145.09;;;6.60;70.54
84673;BME280;74899;42.256;23.284;2024-02-26T08:11:25;88144.19;;;6.97;69.54
84673;BME280;74899;42.256;23.284;2024-02-26T08:13:52;88135.28;;;7.40;68.62
84673;BME280;74899;42.256;23.284;2024-02-26T08:16:18;88131.44;;;7.33;68.35
84673;BME280;74899;42.256;23.284;2024-02-26T08:18:45;88125.78;;;7.36;68.46
84673;BME280;74899;42.256;23.284;2024-02-26T08:21:12;88130.69;;;7.73;67.25
84673;BME280;74899;42.256;23.284;2024-02-26T08:23:38;88138.31;;;8.09;65.85
84673;BME280;74899;42.256;23.284;2024-02-26T08:26:05;88128.84;;;8.04;65.50
84673;BME280;74899;42.256;23.284;2024-02-26T08:28:33;88126.81;;;7.81;64.74
84673;BME280;74899;42.256;23.284;2024-02-26T08:30:59;88127.84;;;7.75;64.54
84673;BME280;74899;42.256;23.284;2024-02-26T08:33:25;88130.63;;;8.09;65.25
84673;BME280;74899;42.256;23.284;2024-02-26T08:35:51;88137.97;;;8.56;63.64
84673;BME280;74899;42.256;23.284;2024-02-26T08:38:17;88125.88;;;8.62;62.65
84673;BME280;74899;42.256;23.284;2024-02-26T08:40:44;88134.94;;;8.44;64.30
84673;BME280;74899;42.256;23.284;2024-02-26T08:43:10;88133.91;;;8.45;63.22
84673;BME280;74899;42.256;23.284;2024-02-26T08:45:36;88131.41;;;8.14;64.75
84673;BME280;74899;42.256;23.284;2024-02-26T08:48:02;88122.78;;;8.70;63.91
84673;BME280;74899;42.256;23.284;2024-02-26T08:50:27;88127.97;;;9.15;62.78
84673;BME280;74899;42.256;23.284;2024-02-26T08:52:53;88123.66;;;9.44;60.60
84673;BME280;74899;42.256;23.284;2024-02-26T08:55:19;88100.75;;;9.08;61.25
84673;BME280;74899;42.256;23.284;2024-02-26T08:57:45;88117.69;;;9.15;61.55
84673;BME280;74899;42.256;23.284;2024-02-26T09:00:11;88118.63;;;9.68;61.59
84673;BME280;74899;42.256;23.284;2024-02-26T09:02:39;88120.19;;;9.98;61.86
84673;BME280;74899;42.256;23.284;2024-02-26T09:05:05;88115.88;;;9.60;63.03
84673;BME280;74899;42.256;23.284;2024-02-26T09:07:31;88089.84;;;8.82;66.16
84673;BME280;74899;42.256;23.284;2024-02-26T09:09:57;88093.44;;;9.26;65.66
84673;BME280;74899;42.256;23.284;2024-02-26T09:12:23;88093.69;;;9.64;64.03
84673;BME280;74899;42.256;23.284;2024-02-26T09:14:49;88083.09;;;8.97;64.37
84673;BME280;74899;42.256;23.284;2024-02-26T09:17:15;88083.41;;;9.64;63.93
84673;BME280;74899;42.256;23.284;2024-02-26T09:19:41;88086.31;;;10.15;61.47
84673;BME280;74899;42.256;23.284;2024-02-26T09:22:09;88081.03;;;10.31;61.77
84673;BME280;74899;42.256;23.284;2024-02-26T09:24:34;88074.72;;;10.42;60.67
84673;BME280;74899;42.256;23.284;2024-02-26T09:27:01;88082.94;;;10.44;60.60
84673;BME280;74899;42.256;23.284;2024-02-26T09:29:27;88095.50;;;10.51;60.06
84673;BME280;74899;42.256;23.284;2024-02-26T09:31:53;88090.13;;;10.47;59.07
84673;BME280;74899;42.256;23.284;2024-02-26T09:34:19;88082.72;;;10.40;60.12
84673;BME280;74899;42.256;23.284;2024-02-26T09:36:45;88098.16;;;10.40;59.78
84673;BME280;74899;42.256;23.284;2024-02-26T09:39:11;88090.34;;;10.51;59.01
84673;BME280;74899;42.256;23.284;2024-02-26T09:41:41;88098.09;;;10.21;60.20
84673;BME280;74899;42.256;23.284;2024-02-26T09:44:15;88096.69;;;10.05;59.60
84673;BME280;74899;42.256;23.284;2024-02-26T09:46:44;88093.94;;;10.50;57.32
84673;BME280;74899;42.256;23.284;2024-02-26T09:49:10;88103.41;;;10.59;58.00
84673;BME280;74899;42.256;23.284;2024-02-26T09:51:38;88104.31;;;10.69;57.77
84673;BME280;74899;42.256;23.284;2024-02-26T09:54:07;88093.66;;;10.75;59.11
84673;BME280;74899;42.256;23.284;2024-02-26T09:56:39;88094.72;;;10.74;59.61
84673;BME280;74899;42.256;23.284;2024-02-26T09:59:10;88093.66;;;10.75;57.51
84673;BME280;74899;42.256;23.284;2024-02-26T10:01:46;88090.50;;;10.83;58.80
84673;BME280;74899;42.256;23.284;2024-02-26T10:04:13;88085.22;;;11.12;55.11
84673;BME280;74899;42.256;23.284;2024-02-26T10:06:41;88093.88;;;11.22;55.45
84673;BME280;74899;42.256;23.284;2024-02-26T10:09:10;88097.47;;;11.02;56.60
84673;BME280;74899;42.256;23.284;2024-02-26T10:11:37;88093.00;;;11.07;58.76
84673;BME280;74899;42.256;23.284;2024-02-26T10:14:05;88101.56;;;10.84;58.79
84673;BME280;74899;42.256;23.284;2024-02-26T10:16:31;88087.59;;;10.66;58.10
84673;BME280;74899;42.256;23.284;2024-02-26T10:18:58;88093.63;;;10.80;58.77
84673;BME280;74899;42.256;23.284;2024-02-26T10:21:25;88097.13;;;10.89;59.52
84673;BME280;74899;42.256;23.284;2024-02-26T10:23:51;88085.34;;;11.02;58.91
84673;BME280;74899;42.256;23.284;2024-02-26T10:26:17;88084.97;;;10.90;58.75
84673;BME280;74899;42.256;23.284;2024-02-26T10:28:50;88086.13;;;11.03;58.83
84673;BME280;74899;42.256;23.284;2024-02-26T10:31:16;88078.41;;;11.03;58.84
84673;BME280;74899;42.256;23.284;2024-02-26T10:33:42;88071.53;;;10.93;58.11
84673;BME280;74899;42.256;23.284;2024-02-26T10:36:08;88071.38;;;10.65;58.50
84673;BME280;74899;42.256;23.284;2024-02-26T10:38:35;88082.69;;;10.88;58.65
84673;BME280;74899;42.256;23.284;2024-02-26T10:41:02;88073.50;;;10.82;58.91
84673;BME280;74899;42.256;23.284;2024-02-26T10:43:29;88069.72;;;10.94;58.21
84673;BME280;74899;42.256;23.284;2024-02-26T10:45:58;88074.34;;;10.30;59.24
84673;BME280;74899;42.256;23.284;2024-02-26T10:48:23;88061.31;;;9.92;59.73
84673;BME280;74899;42.256;23.284;2024-02-26T10:50:49;88070.16;;;10.34;59.41
84673;BME280;74899;42.256;23.284;2024-02-26T10:53:20;88082.63;;;10.51;58.94
84673;BME280;74899;42.256;23.284;2024-02-26T10:55:53;88086.47;;;10.53;58.14
84673;BME280;74899;42.256;23.284;2024-02-26T10:58:20;88073.34;;;10.93;57.32
84673;BME280;74899;42.256;23.284;2024-02-26T11:00:49;88073.56;;;10.96;57.75
84673;BME280;74899;42.256;23.284;2024-02-26T11:03:15;88066.78;;;10.81;58.85
84673;BME280;74899;42.256;23.284;2024-02-26T11:05:51;88062.16;;;10.59;59.36
84673;BME280;74899;42.256;23.284;2024-02-26T11:08:19;88061.44;;;10.97;58.70
84673;BME280;74899;42.256;23.284;2024-02-26T11:10:52;88068.13;;;10.98;58.24
84673;BME280;74899;42.256;23.284;2024-02-26T11:13:19;88058.09;;;10.77;59.52
84673;BME280;74899;42.256;23.284;2024-02-26T11:15:54;88064.44;;;11.23;57.41
84673;BME280;74899;42.256;23.284;2024-02-26T11:18:22;88067.09;;;11.55;57.19
84673;BME280;74899;42.256;23.284;2024-02-26T11:20:49;88057.31;;;11.52;56.76
84673;BME280;74899;42.256;23.284;2024-02-26T11:23:16;88043.72;;;10.90;59.26
84673;BME280;74899;42.256;23.284;2024-02-26T11:25:43;88038.50;;;11.33;56.69
84673;BME280;74899;42.256;23.284;2024-02-26T11:28:13;88046.44;;;11.55;57.00
84673;BME280;74899;42.256;23.284;2024-02-26T11:30:44;88044.69;;;11.84;56.82
84673;BME280;74899;42.256;23.284;2024-02-26T11:33:18;88039.56;;;11.65;56.38
84673;BME280;74899;42.256;23.284;2024-02-26T11:35:45;88039.50;;;12.02;55.58
84673;BME280;74899;42.256;23.284;2024-02-26T11:38:19;88043.44;;;12.28;55.30
84673;BME280;74899;42.256;23.284;2024-02-26T11:40:46;88036.91;;;12.16;54.37
84673;BME280;74899;42.256;23.284;2024-02-26T11:43:14;88041.91;;;12.27;55.33
84673;BME280;74899;42.256;23.284;2024-02-26T11:48:22;88027.72;;;12.10;54.18
84673;BME280;74899;42.256;23.284;2024-02-26T11:50:50;88033.63;;;11.12;57.31
84673;BME280;74899;42.256;23.284;2024-02-26T11:53:31;88026.94;;;11.96;55.71
84673;BME280;74899;42.256;23.284;2024-02-26T11:56:21;88013.88;;;11.73;55.37
84673;BME280;74899;42.256;23.284;2024-02-26T11:59:10;88023.78;;;11.99;53.24
84673;BME280;74899;42.256;23.284;2024-02-26T12:01:40;88033.41;;;12.26;53.27
84673;BME280;74899;42.256;23.284;2024-02-26T12:04:19;88029.94;;;12.31;52.70
84673;BME280;74899;42.256;23.284;2024-02-26T12:07:02;88032.91;;;12.52;52.53
84673;BME280;74899;42.256;23.284;2024-02-26T12:09:33;88037.91;;;12.48;52.23
84673;BME280;74899;42.256;23.284;2024-02-26T12:12:00;88032.81;;;12.43;52.35
84673;BME280;74899;42.256;23.284;2024-02-26T12:14:26;88043.44;;;12.28;52.91
84673;BME280;74899;42.256;23.284;2024-02-26T12:16:52;88024.53;;;10.58;55.87
84673;BME280;74899;42.256;23.284;2024-02-26T12:19:18;88042.19;;;10.27;56.22
84673;BME280;74899;42.256;23.284;2024-02-26T12:21:51;88034.38;;;10.56;56.67
84673;BME280;74899;42.256;23.284;2024-02-26T12:24:19;88041.22;;;10.85;57.50
84673;BME280;74899;42.256;23.284;2024-02-26T12:26:46;88033.56;;;11.69;55.26
84673;BME280;74899;42.256;23.284;2024-02-26T12:29:12;88041.72;;;12.09;53.36
84673;BME280;74899;42.256;23.284;2024-02-26T12:31:40;88042.97;;;12.25;53.36
84673;BME280;74899;42.256;23.284;2024-02-26T12:34:07;88038.72;;;11.88;52.30
84673;BME280;74899;42.256;23.284;2024-02-26T12:36:37;88050.59;;;12.03;53.99
84673;BME280;74899;42.256;23.284;2024-02-26T12:39:04;88049.47;;;11.76;54.15
84673;BME280;74899;42.256;23.284;2024-02-26T12:41:33;88042.91;;;11.13;54.83
84673;BME280;74899;42.256;23.284;2024-02-26T12:43:59;88045.84;;;11.07;55.41
84673;BME280;74899;42.256;23.284;2024-02-26T12:46:25;88050.72;;;11.60;54.94
84673;BME280;74899;42.256;23.284;2024-02-26T12:48:57;88041.16;;;11.28;54.19
84673;BME280;74899;42.256;23.284;2024-02-26T12:51:25;88046.47;;;11.18;54.34
84673;BME280;74899;42.256;23.284;2024-02-26T12:53:53;88032.88;;;11.12;53.67
84673;BME280;74899;42.256;23.284;2024-02-26T12:56:22;88041.38;;;11.12;54.65
84673;BME280;74899;42.256;23.284;2024-02-26T12:58:52;88037.31;;;11.44;54.23
84673;BME280;74899;42.256;23.284;2024-02-26T13:01:22;88039.97;;;11.91;53.52
84673;BME280;74899;42.256;23.284;2024-02-26T13:03:49;88046.47;;;12.02;51.64
84673;BME280;74899;42.256;23.284;2024-02-26T13:06:16;88046.06;;;11.62;53.11
84673;BME280;74899;42.256;23.284;2024-02-26T13:08:43;88047.59;;;11.96;52.31
84673;BME280;74899;42.256;23.284;2024-02-26T13:11:10;88054.19;;;11.88;53.00
84673;BME280;74899;42.256;23.284;2024-02-26T13:13:37;88049.97;;;11.41;53.90
84673;BME280;74899;42.256;23.284;2024-02-26T13:16:09;88059.81;;;11.57;53.67
84673;BME280;74899;42.256;23.284;2024-02-26T13:18:36;88044.06;;;11.40;54.11
84673;BME280;74899;42.256;23.284;2024-02-26T13:21:11;88065.59;;;11.68;52.21
84673;BME280;74899;42.256;23.284;2024-02-26T13:23:42;88056.78;;;11.18;53.63
84673;BME280;74899;42.256;23.284;2024-02-26T13:26:09;88063.66;;;11.22;53.98
84673;BME280;74899;42.256;23.284;2024-02-26T13:28:39;88072.25;;;11.37;53.17
84673;BME280;74899;42.256;23.284;2024-02-26T13:31:08;88076.78;;;11.26;52.96
84673;BME280;74899;42.256;23.284;2024-02-26T13:33:34;88070.50;;;11.13;53.13
84673;BME280;74899;42.256;23.284;2024-02-26T13:36:00;88071.75;;;11.16;53.03
84673;BME280;74899;42.256;23.284;2024-02-26T13:38:27;88078.38;;;11.22;53.03
84673;BME280;74899;42.256;23.284;2024-02-26T13:40:54;88073.50;;;11.20;53.18
84673;BME280;74899;42.256;23.284;2024-02-26T13:43:20;88076.44;;;11.13;52.94
84673;BME280;74899;42.256;23.284;2024-02-26T13:45:47;88074.91;;;11.12;52.65
84673;BME280;74899;42.256;23.284;2024-02-26T13:48:13;88089.88;;;11.10;52.15
84673;BME280;74899;42.256;23.284;2024-02-26T13:50:40;88090.50;;;11.02;53.10
84673;BME280;74899;42.256;23.284;2024-02-26T13:53:06;88091.19;;;10.89;52.48
84673;BME280;74899;42.256;23.284;2024-02-26T13:55:33;88088.72;;;10.79;53.17
84673;BME280;74899;42.256;23.284;2024-02-26T13:57:59;88089.34;;;10.71;54.23
84673;BME280;74899;42.256;23.284;2024-02-26T14:00:30;88102.06;;;10.38;55.56
84673;BME280;74899;42.256;23.284;2024-02-26T14:03:01;88108.22;;;10.13;55.49
84673;BME280;74899;42.256;23.284;2024-02-26T14:05:31;88103.03;;;10.18;56.27
84673;BME280;74899;42.256;23.284;2024-02-26T14:07:57;88101.84;;;10.05;55.73
84673;BME280;74899;42.256;23.284;2024-02-26T14:10:22;88086.44;;;10.00;56.51
84673;BME280;74899;42.256;23.284;2024-02-26T14:12:48;88103.94;;;9.74;56.29
84673;BME280;74899;42.256;23.284;2024-02-26T14:15:15;88099.59;;;9.64;57.71
84673;BME280;74899;42.256;23.284;2024-02-26T14:17:41;88102.16;;;9.69;57.50
84673;BME280;74899;42.256;23.284;2024-02-26T14:20:08;88099.44;;;9.50;56.87
84673;BME280;74899;42.256;23.284;2024-02-26T14:22:34;88111.13;;;9.38;58.14
84673;BME280;74899;42.256;23.284;2024-02-26T14:25:00;88104.50;;;9.26;58.65
84673;BME280;74899;42.256;23.284;2024-02-26T14:27:28;88112.41;;;9.35;59.00
84673;BME280;74899;42.256;23.284;2024-02-26T14:29:53;88095.97;;;9.36;58.08
84673;BME280;74899;42.256;23.284;2024-02-26T14:32:20;88103.34;;;9.48;58.47
84673;BME280;74899;42.256;23.284;2024-02-26T14:34:47;88102.22;;;9.20;58.03
84673;BME280;74899;42.256;23.284;2024-02-26T14:37:13;88095.94;;;8.97;59.31
84673;BME280;74899;42.256;23.284;2024-02-26T14:39:39;88104.19;;;8.94;58.88
84673;BME280;74899;42.256;23.284;2024-02-26T14:42:11;88109.41;;;8.68;60.21
84673;BME280;74899;42.256;23.284;2024-02-26T14:44:37;88117.47;;;8.51;61.01
84673;BME280;74899;42.256;23.284;2024-02-26T14:47:03;88117.72;;;8.45;61.14
84673;BME280;74899;42.256;23.284;2024-02-26T14:49:34;88123.13;;;8.38;62.43
84673;BME280;74899;42.256;23.284;2024-02-26T14:52:00;88121.09;;;8.40;61.91
84673;BME280;74899;42.256;23.284;2024-02-26T14:54:26;88127.50;;;8.37;62.36
84673;BME280;74899;42.256;23.284;2024-02-26T14:56:52;88128.81;;;8.20;63.09
84673;BME280;74899;42.256;23.284;2024-02-26T14:59:18;88132.16;;;8.10;63.49
84673;BME280;74899;42.256;23.284;2024-02-26T15:01:44;88137.59;;;7.93;64.81
84673;BME280;74899;42.256;23.284;2024-02-26T15:04:10;88130.13;;;7.86;64.59
84673;BME280;74899;42.256;23.284;2024-02-26T15:06:38;88134.00;;;7.94;65.12
84673;BME280;74899;42.256;23.284;2024-02-26T15:09:03;88121.16;;;7.89;64.46
84673;BME280;74899;42.256;23.284;2024-02-26T15:11:29;88133.50;;;7.77;66.46
84673;BME280;74899;42.256;23.284;2024-02-26T15:13:55;88130.94;;;7.82;65.53
84673;BME280;74899;42.256;23.284;2024-02-26T15:16:22;88130.16;;;7.81;65.85
84673;BME280;74899;42.256;23.284;2024-02-26T15:18:48;88139.88;;;7.94;66.03
84673;BME280;74899;42.256;23.284;2024-02-26T15:21:14;88128.06;;;8.04;64.88
84673;BME280;74899;42.256;23.284;2024-02-26T15:23:42;88129.59;;;8.15;64.92